Agrinion, Greece
Current Conditions -  °F | °C
As of 1:20 PM on Saturday 25 Oct 2014 (Local Time) from LGRX Reporting Station
Scattered Clouds Scattered Clouds  
Wind Chill: 64°   Ceiling: Unl
Heat Index: 64°   Visibility: 6mi
Dew Point: 50°   Wind: 3mph
Humidity: 59%   Direction: NA
Pressure: 29.85"   Gusts: NA
Location:  38.62°N, 21.41°E
Report Text: LGRX 251020Z VRB03KT 9999 SCT030 SCT080 18/10 Q1011
Loading
Personal Weather Stations






























Interactive Weather Map
Tropical Storm Tracking
New forecast layout! Learn more

10-Day Weather Forecast

Advertisements
Track Severe Weather on mobile